createdAt,value
2022-09-16T00:00:08.263Z,18.15
2022-09-16T00:01:08.301Z,18.08
2022-09-16T00:02:08.296Z,18.17
2022-09-16T00:03:08.247Z,18.12
2022-09-16T00:04:08.241Z,18.08
2022-09-16T00:05:08.243Z,18.05
2022-09-16T00:06:08.238Z,17.96
2022-09-16T00:07:08.233Z,18.03
2022-09-16T00:08:08.220Z,17.95
2022-09-16T00:09:08.222Z,17.93
2022-09-16T00:10:08.222Z,17.95
2022-09-16T00:11:08.208Z,17.89
2022-09-16T00:12:08.231Z,17.81
2022-09-16T00:13:08.206Z,17.81
2022-09-16T00:14:08.198Z,17.87
2022-09-16T00:15:08.197Z,17.82
2022-09-16T00:16:08.246Z,17.87
2022-09-16T00:17:08.179Z,17.81
2022-09-16T00:18:11.419Z,17.84
2022-09-16T00:19:08.176Z,17.81
2022-09-16T00:20:08.162Z,17.84
2022-09-16T00:21:50.544Z,17.78
2022-09-16T00:22:50.533Z,17.71
2022-09-16T00:23:50.527Z,17.72
2022-09-16T00:24:50.522Z,17.63
2022-09-16T00:25:50.523Z,17.68
2022-09-16T00:26:50.523Z,17.72
2022-09-16T00:27:50.523Z,17.70
2022-09-16T00:28:50.508Z,17.68
2022-09-16T00:29:50.499Z,17.72
2022-09-16T00:30:50.500Z,17.68
2022-09-16T00:31:50.567Z,17.70
2022-09-16T00:32:50.480Z,17.70
2022-09-16T00:33:50.474Z,17.66
2022-09-16T00:34:50.476Z,17.74
2022-09-16T00:35:50.474Z,17.74
2022-09-16T00:36:50.471Z,17.75
2022-09-16T00:37:50.465Z,17.74
2022-09-16T00:38:50.459Z,17.77
2022-09-16T00:39:50.502Z,17.74
2022-09-16T00:40:50.456Z,17.72
2022-09-16T00:41:50.439Z,17.74
2022-09-16T00:42:50.448Z,17.84
2022-09-16T00:43:50.468Z,17.81
2022-09-16T00:44:50.431Z,17.82
2022-09-16T00:45:50.426Z,17.84
2022-09-16T00:46:50.573Z,17.79
2022-09-16T00:47:50.419Z,17.72
2022-09-16T00:48:50.405Z,17.77
2022-09-16T00:49:50.401Z,17.87
2022-09-16T00:50:50.398Z,17.79
2022-09-16T00:51:50.396Z,17.75
2022-09-16T00:52:50.401Z,17.79
2022-09-16T00:53:50.387Z,17.84
2022-09-16T00:54:50.384Z,17.77
2022-09-16T00:55:50.370Z,17.77
2022-09-16T00:56:50.370Z,17.82
2022-09-16T00:57:50.364Z,17.79
2022-09-16T00:58:50.357Z,17.86
2022-09-16T00:59:50.389Z,17.84
2022-09-16T01:00:50.472Z,17.75
2022-09-16T01:01:50.493Z,17.79
2022-09-16T01:02:50.344Z,17.78
2022-09-16T01:03:50.337Z,17.82
2022-09-16T01:04:50.339Z,17.82
2022-09-16T01:05:50.336Z,17.87
2022-09-16T01:06:50.323Z,17.74
2022-09-16T01:07:50.324Z,17.78
2022-09-16T01:08:50.314Z,17.79
2022-09-16T01:09:50.319Z,17.75
2022-09-16T01:10:50.309Z,17.71
2022-09-16T01:11:50.324Z,17.74
2022-09-16T01:12:50.305Z,17.64
2022-09-16T01:13:50.295Z,17.68
2022-09-16T01:14:50.292Z,17.66
2022-09-16T01:15:50.331Z,17.68
2022-09-16T01:16:50.284Z,17.66
2022-09-16T01:17:50.285Z,17.62
2022-09-16T01:18:50.277Z,17.68
2022-09-16T01:19:50.268Z,17.56
2022-09-16T01:20:50.256Z,17.56
2022-09-16T01:21:50.254Z,17.63
2022-09-16T01:22:50.255Z,17.59
2022-09-16T01:23:50.243Z,17.63
2022-09-16T01:24:50.238Z,17.58
2022-09-16T01:25:50.238Z,17.55
2022-09-16T01:26:50.228Z,17.52
2022-09-16T01:27:50.236Z,17.66
2022-09-16T01:28:50.236Z,17.54
2022-09-16T01:29:50.223Z,17.62
2022-09-16T01:30:50.224Z,17.63
2022-09-16T01:31:50.319Z,17.55
2022-09-16T01:32:50.197Z,17.58
2022-09-16T01:33:50.205Z,17.55
2022-09-16T01:34:50.187Z,17.59
2022-09-16T01:35:50.198Z,17.54
2022-09-16T01:36:50.187Z,17.62
2022-09-16T01:37:50.185Z,17.59
2022-09-16T01:38:50.178Z,17.54
2022-09-16T01:39:50.237Z,17.54
2022-09-16T01:40:50.176Z,17.56
2022-09-16T01:41:50.152Z,17.56
2022-09-16T01:42:50.158Z,17.51
2022-09-16T01:43:50.145Z,17.49
2022-09-16T01:44:50.142Z,17.46
2022-09-16T01:45:50.146Z,17.48
2022-09-16T01:46:50.172Z,17.63
2022-09-16T01:47:50.155Z,17.52
2022-09-16T01:48:53.628Z,17.56
2022-09-16T01:49:50.118Z,17.56
2022-09-16T01:50:50.131Z,17.52
2022-09-16T01:51:50.121Z,17.62
2022-09-16T01:52:50.103Z,17.55
2022-09-16T01:53:50.114Z,17.51
2022-09-16T01:54:50.095Z,17.52
2022-09-16T01:55:50.084Z,17.51
2022-09-16T01:56:50.083Z,17.48
2022-09-16T01:57:50.084Z,17.48
2022-09-16T01:58:50.073Z,17.52
2022-09-16T01:59:50.075Z,17.44
2022-09-16T02:00:50.069Z,17.48
2022-09-16T02:01:50.214Z,17.52
2022-09-16T02:02:50.131Z,17.56
2022-09-16T02:03:50.072Z,17.49
2022-09-16T02:04:50.048Z,17.59
2022-09-16T02:05:50.051Z,17.55
2022-09-16T02:06:50.037Z,17.58
2022-09-16T02:07:50.033Z,17.59
2022-09-16T02:08:50.032Z,17.56
2022-09-16T02:09:50.026Z,17.55
2022-09-16T02:10:50.013Z,17.56
2022-09-16T02:11:50.018Z,17.51
2022-09-16T02:12:50.004Z,17.59
2022-09-16T02:13:50.015Z,17.56
2022-09-16T02:14:49.994Z,17.52
2022-09-16T02:15:50.030Z,17.55
2022-09-16T02:16:49.992Z,17.58
2022-09-16T02:17:49.987Z,17.62
2022-09-16T02:18:49.985Z,17.58
2022-09-16T02:19:49.987Z,17.59
2022-09-16T02:20:49.981Z,17.59
2022-09-16T02:21:49.969Z,17.52
2022-09-16T02:22:49.960Z,17.64
2022-09-16T02:23:49.960Z,17.64
2022-09-16T02:24:49.946Z,17.63
2022-09-16T02:25:49.958Z,17.64
2022-09-16T02:26:49.956Z,17.63
2022-09-16T02:27:49.937Z,17.66
2022-09-16T02:28:49.941Z,17.64
2022-09-16T02:29:49.926Z,17.68
2022-09-16T02:30:49.999Z,17.68
2022-09-16T02:31:54.952Z,17.70
2022-09-16T02:32:49.916Z,17.72
2022-09-16T02:33:49.906Z,17.77
2022-09-16T02:34:49.905Z,17.74
2022-09-16T02:35:49.929Z,17.72
2022-09-16T02:36:49.897Z,17.70
2022-09-16T02:37:49.885Z,17.72
2022-09-16T02:38:49.887Z,17.64
2022-09-16T02:39:49.957Z,17.71
2022-09-16T02:40:49.870Z,17.75
2022-09-16T02:41:49.877Z,17.72
2022-09-16T02:42:49.879Z,17.72
2022-09-16T02:43:49.865Z,17.74
2022-09-16T02:44:49.860Z,17.72
2022-09-16T02:45:49.854Z,17.74
2022-09-16T02:46:49.957Z,17.71
2022-09-16T02:47:49.842Z,17.72
2022-09-16T02:48:49.841Z,17.74
2022-09-16T02:49:49.859Z,17.72
2022-09-16T02:50:49.824Z,17.74
2022-09-16T02:51:49.835Z,17.70
2022-09-16T02:52:49.830Z,17.75
2022-09-16T02:53:49.821Z,17.77
2022-09-16T02:54:49.803Z,17.64
2022-09-16T02:55:49.803Z,17.64
2022-09-16T02:56:49.798Z,17.62
2022-09-16T02:57:49.797Z,17.58
2022-09-16T02:58:49.792Z,17.62
2022-09-16T02:59:49.789Z,17.52
2022-09-16T03:00:49.786Z,17.59
2022-09-16T03:01:49.909Z,17.62
2022-09-16T03:02:49.871Z,17.54
2022-09-16T03:03:49.762Z,17.52
2022-09-16T03:04:49.756Z,17.51
2022-09-16T03:05:49.757Z,17.44
2022-09-16T03:06:49.755Z,17.55
2022-09-16T03:07:49.766Z,17.49
2022-09-16T03:08:49.750Z,17.52
2022-09-16T03:09:49.746Z,17.43
2022-09-16T03:10:49.737Z,17.44
2022-09-16T03:11:49.723Z,17.51
2022-09-16T03:12:49.734Z,17.46
2022-09-16T03:13:49.724Z,17.54
2022-09-16T03:14:49.722Z,17.48
2022-09-16T03:15:49.757Z,17.52
2022-09-16T03:16:49.705Z,17.52
2022-09-16T03:17:49.695Z,17.46
2022-09-16T03:18:49.693Z,17.51
2022-09-16T03:19:49.680Z,17.48
2022-09-16T03:20:49.676Z,17.49
2022-09-16T03:21:49.682Z,17.56
2022-09-16T03:22:49.675Z,17.52
2022-09-16T03:23:49.682Z,17.62
2022-09-16T03:24:49.664Z,17.66
2022-09-16T03:25:49.666Z,17.63
2022-09-16T03:26:49.661Z,17.63
2022-09-16T03:27:49.648Z,17.71
2022-09-16T03:28:49.648Z,17.71
2022-09-16T03:29:49.637Z,17.64
2022-09-16T03:30:49.671Z,17.64
2022-09-16T03:31:49.641Z,17.72
2022-09-16T03:32:49.621Z,17.70
2022-09-16T03:33:49.621Z,17.68
2022-09-16T03:34:49.621Z,17.71
2022-09-16T03:35:49.640Z,17.54
2022-09-16T03:36:49.609Z,17.56
2022-09-16T03:37:49.596Z,17.52
2022-09-16T03:38:49.592Z,17.44
2022-09-16T03:39:49.678Z,17.51
2022-09-16T03:40:49.596Z,17.46
2022-09-16T03:41:49.588Z,17.54
2022-09-16T03:42:49.572Z,17.44
2022-09-16T03:43:49.577Z,17.52
2022-09-16T03:44:49.571Z,17.48
2022-09-16T03:45:49.558Z,17.43
2022-09-16T03:46:49.561Z,17.44
2022-09-16T03:47:49.564Z,17.41
2022-09-16T03:48:49.554Z,17.46
2022-09-16T03:49:49.541Z,17.44
2022-09-16T03:50:49.556Z,17.34
2022-09-16T03:51:49.535Z,17.49
2022-09-16T03:52:49.534Z,17.37
2022-09-16T03:53:49.524Z,17.33
2022-09-16T03:54:49.513Z,17.43
2022-09-16T03:55:49.530Z,17.41
2022-09-16T03:56:49.508Z,17.43
2022-09-16T03:57:49.507Z,17.49
2022-09-16T03:58:49.499Z,17.46
2022-09-16T03:59:49.498Z,17.41
2022-09-16T04:00:49.490Z,17.38
2022-09-16T04:01:49.578Z,17.49
2022-09-16T04:02:49.572Z,17.51
2022-09-16T04:03:49.481Z,17.43
2022-09-16T04:04:49.467Z,17.44
2022-09-16T04:05:49.463Z,17.54
2022-09-16T04:06:49.454Z,17.44
2022-09-16T04:07:49.452Z,17.52
2022-09-16T04:08:49.452Z,17.54
2022-09-16T04:09:49.453Z,17.46
2022-09-16T04:10:49.441Z,17.43
2022-09-16T04:11:49.453Z,17.49
2022-09-16T04:12:49.428Z,17.48
2022-09-16T04:13:49.423Z,17.44
2022-09-16T04:14:49.423Z,17.44
2022-09-16T04:15:49.465Z,17.46
2022-09-16T04:16:49.415Z,17.54
2022-09-16T04:17:49.418Z,17.46
2022-09-16T04:18:49.406Z,17.48
2022-09-16T04:19:49.401Z,17.48
2022-09-16T04:20:49.394Z,17.52
2022-09-16T04:21:49.481Z,17.49
2022-09-16T04:22:49.435Z,17.49
2022-09-16T04:23:49.438Z,17.51
2022-09-16T04:24:49.371Z,17.54
2022-09-16T04:25:49.373Z,17.48
2022-09-16T04:26:49.362Z,17.52
2022-09-16T04:27:49.378Z,17.59
2022-09-16T04:28:49.347Z,17.52
2022-09-16T04:29:49.351Z,17.62
2022-09-16T04:30:49.396Z,17.56
2022-09-16T04:31:49.342Z,17.56
2022-09-16T04:32:49.339Z,17.54
2022-09-16T04:33:49.357Z,17.59
2022-09-16T04:34:49.328Z,17.54
2022-09-16T04:35:49.333Z,17.51
2022-09-16T04:36:49.314Z,17.46
2022-09-16T04:37:49.321Z,17.51
2022-09-16T04:38:49.301Z,17.49
2022-09-16T04:39:49.367Z,17.46
2022-09-16T04:40:49.303Z,17.44
2022-09-16T04:41:49.315Z,17.48
2022-09-16T04:42:49.295Z,17.49
2022-09-16T04:43:49.307Z,17.59
2022-09-16T04:44:49.297Z,17.64
2022-09-16T04:45:49.349Z,17.62
2022-09-16T04:46:49.270Z,17.72
2022-09-16T04:47:49.268Z,17.79
2022-09-16T04:48:49.266Z,17.77
2022-09-16T04:49:49.278Z,17.81
2022-09-16T04:50:49.259Z,17.95
2022-09-16T04:51:49.242Z,18.02
2022-09-16T04:52:49.245Z,17.97
2022-09-16T04:53:49.249Z,18.00
2022-09-16T04:54:49.235Z,18.07
2022-09-16T04:55:49.230Z,18.10
2022-09-16T04:56:49.232Z,18.07
2022-09-16T04:57:49.227Z,18.17
2022-09-16T04:58:49.226Z,18.36
2022-09-16T04:59:49.244Z,18.27
2022-09-16T05:00:49.215Z,18.32
2022-09-16T05:01:49.314Z,18.41
2022-09-16T05:02:49.202Z,18.45
2022-09-16T05:03:49.204Z,18.48
2022-09-16T05:04:49.201Z,18.51
2022-09-16T05:05:49.203Z,18.58
2022-09-16T05:06:49.195Z,18.51
2022-09-16T05:07:49.204Z,18.62
2022-09-16T05:08:49.192Z,18.63
2022-09-16T05:09:49.190Z,18.69
2022-09-16T05:10:49.179Z,18.66
2022-09-16T05:11:49.182Z,18.75
2022-09-16T05:12:49.529Z,18.72
2022-09-16T05:13:49.187Z,18.75
2022-09-16T05:14:49.175Z,18.85
2022-09-16T05:15:51.248Z,18.84
2022-09-16T05:16:49.164Z,18.80
2022-09-16T05:17:51.517Z,18.88
2022-09-16T05:18:49.162Z,18.94
2022-09-16T05:19:49.167Z,18.92
2022-09-16T05:20:49.157Z,18.92
2022-09-16T05:21:49.162Z,18.94
2022-09-16T05:22:49.162Z,19.00
2022-09-16T05:23:49.237Z,18.90
2022-09-16T05:24:49.148Z,19.02
2022-09-16T05:25:49.149Z,18.99
2022-09-16T05:26:49.136Z,19.07
2022-09-16T05:27:49.174Z,19.02
2022-09-16T05:28:49.136Z,19.07
2022-09-16T05:29:49.136Z,19.13
2022-09-16T05:30:49.205Z,19.18
2022-09-16T05:31:49.244Z,19.13
2022-09-16T05:32:49.131Z,19.18
2022-09-16T05:33:49.124Z,19.19
2022-09-16T05:34:49.130Z,19.23
2022-09-16T05:35:49.119Z,19.23
2022-09-16T05:36:49.114Z,19.23
2022-09-16T05:37:49.114Z,19.28
2022-09-16T05:39:11.106Z,19.19
2022-09-16T05:39:49.178Z,19.26
2022-09-16T05:40:49.105Z,19.25
2022-09-16T05:41:49.101Z,19.22
2022-09-16T05:42:49.107Z,19.39
2022-09-16T05:43:49.100Z,19.37
2022-09-16T05:44:49.108Z,19.40
2022-09-16T05:45:49.126Z,19.33
2022-09-16T05:46:49.103Z,19.37
2022-09-16T05:47:49.205Z,19.37
2022-09-16T05:48:49.112Z,19.36
2022-09-16T05:49:49.097Z,19.31
2022-09-16T05:50:49.082Z,19.46
2022-09-16T05:51:49.092Z,19.40
2022-09-16T05:52:49.091Z,19.41
2022-09-16T05:53:49.082Z,19.48
2022-09-16T05:54:49.077Z,19.47
2022-09-16T05:55:49.083Z,19.50
2022-09-16T05:56:49.070Z,19.40
2022-09-16T05:57:49.074Z,19.46
2022-09-16T05:58:49.082Z,19.55
2022-09-16T05:59:49.074Z,19.59
2022-09-16T06:00:49.064Z,19.51
2022-09-16T06:01:49.116Z,19.61
2022-09-16T06:02:49.162Z,19.59
2022-09-16T06:03:49.184Z,19.58
2022-09-16T06:04:49.061Z,19.56
2022-09-16T06:05:49.066Z,19.62
2022-09-16T06:06:49.074Z,19.62
2022-09-16T06:07:49.073Z,19.69
2022-09-16T06:08:49.066Z,19.68
2022-09-16T06:09:49.064Z,19.62
2022-09-16T06:10:49.053Z,19.69
2022-09-16T06:11:49.053Z,19.73
2022-09-16T06:12:49.040Z,19.66
2022-09-16T06:13:49.054Z,19.63
2022-09-16T06:14:49.043Z,19.63
2022-09-16T06:15:49.128Z,19.65
2022-09-16T06:16:49.063Z,19.68
2022-09-16T06:17:49.044Z,19.71
2022-09-16T06:18:49.038Z,19.73
2022-09-16T06:19:49.157Z,19.63
2022-09-16T06:20:49.030Z,19.73
2022-09-16T06:21:49.034Z,19.74
2022-09-16T06:22:49.027Z,19.74
2022-09-16T06:23:49.034Z,19.77
2022-09-16T06:24:49.027Z,19.73
2022-09-16T06:25:49.041Z,19.77
2022-09-16T06:26:49.025Z,19.81
2022-09-16T06:27:49.017Z,19.77
2022-09-16T06:28:49.020Z,19.83
2022-09-16T06:29:49.024Z,19.71
2022-09-16T06:30:49.098Z,19.83
2022-09-16T06:31:49.025Z,19.81
2022-09-16T06:32:49.022Z,19.77
2022-09-16T06:33:49.013Z,19.86
2022-09-16T06:34:49.015Z,19.78
2022-09-16T06:35:49.130Z,19.86
2022-09-16T06:36:49.015Z,19.86
2022-09-16T06:37:49.017Z,19.87
2022-09-16T06:38:49.014Z,19.87
2022-09-16T06:39:49.037Z,19.84
2022-09-16T06:40:49.006Z,19.81
2022-09-16T06:41:49.000Z,19.88
2022-09-16T06:42:49.001Z,19.91
2022-09-16T06:43:49.012Z,19.83
2022-09-16T06:44:48.989Z,19.95
2022-09-16T06:45:49.053Z,19.86
2022-09-16T06:46:48.986Z,19.88
2022-09-16T06:47:48.995Z,19.92
2022-09-16T06:48:48.991Z,19.91
2022-09-16T06:49:48.986Z,19.94
2022-09-16T06:50:48.989Z,19.95
2022-09-16T06:51:49.096Z,19.91
2022-09-16T06:52:48.986Z,19.92
2022-09-16T06:53:48.986Z,19.98
2022-09-16T06:54:48.991Z,19.96
2022-09-16T06:55:48.978Z,19.99
2022-09-16T06:56:48.970Z,20.02
2022-09-16T06:57:48.972Z,20.01
2022-09-16T06:58:48.977Z,20.02
2022-09-16T06:59:48.968Z,20.02
2022-09-16T07:00:48.974Z,19.95
2022-09-16T07:01:48.975Z,19.98
2022-09-16T07:02:49.051Z,19.99
2022-09-16T07:03:48.979Z,19.95
2022-09-16T07:04:48.975Z,20.01
2022-09-16T07:05:48.968Z,20.02
2022-09-16T07:07:49.080Z,20.02
2022-09-16T07:08:48.965Z,20.05
2022-09-16T07:09:48.961Z,20.01
2022-09-16T07:10:48.960Z,19.98
2022-09-16T07:11:48.957Z,19.99
2022-09-16T07:12:48.954Z,20.02
2022-09-16T07:13:48.951Z,20.05
2022-09-16T07:14:48.957Z,19.98
2022-09-16T07:16:11.940Z,20.10
2022-09-16T07:16:48.961Z,20.05
2022-09-16T07:17:48.961Z,19.98
2022-09-16T07:18:48.948Z,19.83
2022-09-16T07:19:48.944Z,19.71
2022-09-16T07:20:48.949Z,19.66
2022-09-16T07:21:48.946Z,19.50
2022-09-16T07:22:48.937Z,19.41
2022-09-16T07:23:49.057Z,19.28
2022-09-16T07:24:48.939Z,19.28
2022-09-16T07:25:48.940Z,19.02
2022-09-16T07:26:48.949Z,19.02
2022-09-16T07:27:48.926Z,18.87
2022-09-16T07:28:48.925Z,18.81
2022-09-16T07:29:48.930Z,18.70
2022-09-16T07:30:48.939Z,18.65
2022-09-16T07:31:48.910Z,18.65
2022-09-16T07:32:48.926Z,18.62
2022-09-16T07:33:48.909Z,18.52
2022-09-16T07:34:48.906Z,18.51
2022-09-16T07:35:48.909Z,18.42
2022-09-16T07:36:49.029Z,18.30
2022-09-16T07:37:48.890Z,18.36
2022-09-16T07:38:48.919Z,18.20
2022-09-16T07:39:49.077Z,18.17
2022-09-16T07:40:48.888Z,18.15
2022-09-16T07:41:48.937Z,18.07
2022-09-16T07:42:48.871Z,18.07
2022-09-16T07:43:48.877Z,18.11
2022-09-16T07:44:48.870Z,18.08
2022-09-16T07:45:48.905Z,17.97
2022-09-16T07:46:48.866Z,17.90
2022-09-16T07:47:48.858Z,17.90
2022-09-16T07:48:48.857Z,17.96
2022-09-16T07:49:48.852Z,17.89
2022-09-16T07:50:48.849Z,17.92
2022-09-16T07:51:48.835Z,17.90
2022-09-16T07:52:48.843Z,17.84
2022-09-16T07:53:48.829Z,17.84
2022-09-16T07:54:48.820Z,17.89
2022-09-16T07:55:48.944Z,17.86
2022-09-16T07:56:48.821Z,17.87
2022-09-16T07:57:48.812Z,17.77
2022-09-16T07:58:48.809Z,17.77
2022-09-16T07:59:48.804Z,17.72
2022-09-16T08:00:48.802Z,17.78
2022-09-16T08:01:48.868Z,17.75
2022-09-16T08:02:48.896Z,17.78
2022-09-16T08:03:48.852Z,17.78
2022-09-16T08:04:48.786Z,17.72
2022-09-16T08:05:48.782Z,17.74
2022-09-16T08:06:48.771Z,17.75
2022-09-16T08:07:48.761Z,17.77
2022-09-16T08:08:48.760Z,17.74
2022-09-16T08:09:50.847Z,17.79
2022-09-16T08:10:48.749Z,17.75
2022-09-16T08:11:48.863Z,17.77
2022-09-16T08:12:48.740Z,17.74
2022-09-16T08:13:48.739Z,17.68
2022-09-16T08:14:48.728Z,17.74
2022-09-16T08:15:48.722Z,17.74
2022-09-16T08:16:48.772Z,17.71
2022-09-16T08:17:48.725Z,17.71
2022-09-16T08:18:48.709Z,17.72
2022-09-16T08:19:48.728Z,17.68
2022-09-16T08:20:48.706Z,17.70
2022-09-16T08:21:48.698Z,17.64
2022-09-16T08:22:48.717Z,17.70
2022-09-16T08:23:48.693Z,17.68
2022-09-16T08:24:48.679Z,17.62
2022-09-16T08:25:48.690Z,17.68
2022-09-16T08:26:48.733Z,17.64
2022-09-16T08:27:51.711Z,17.56
2022-09-16T08:29:07.804Z,17.62
2022-09-16T08:29:48.651Z,17.59
2022-09-16T08:30:51.391Z,17.62
2022-09-16T08:31:48.745Z,17.62
2022-09-16T08:32:48.644Z,17.70
2022-09-16T08:33:48.638Z,17.58
2022-09-16T08:34:48.632Z,17.59
2022-09-16T08:35:48.629Z,17.70
2022-09-16T08:36:48.630Z,17.68
2022-09-16T08:37:50.260Z,17.63
2022-09-16T08:38:48.619Z,17.64
2022-09-16T08:39:48.657Z,17.71
2022-09-16T08:40:48.605Z,17.74
2022-09-16T08:41:48.595Z,17.70
2022-09-16T08:42:48.599Z,17.68
2022-09-16T08:43:48.704Z,17.81
2022-09-16T08:44:48.588Z,17.68
2022-09-16T08:45:48.642Z,17.68
2022-09-16T08:46:48.577Z,17.70
2022-09-16T08:47:48.574Z,17.71
2022-09-16T08:48:48.572Z,17.64
2022-09-16T08:49:48.553Z,17.66
2022-09-16T08:50:48.572Z,17.75
2022-09-16T08:51:48.553Z,17.72
2022-09-16T08:52:48.544Z,17.75
2022-09-16T08:53:48.541Z,17.75
2022-09-16T08:54:48.535Z,17.78
2022-09-16T08:55:48.526Z,17.75
2022-09-16T08:56:48.536Z,17.75
2022-09-16T08:57:48.519Z,17.74
2022-09-16T08:58:48.514Z,17.74
2022-09-16T08:59:48.656Z,17.75
2022-09-16T09:00:48.537Z,17.77
2022-09-16T09:01:48.875Z,17.74
2022-09-16T09:02:48.828Z,17.68
2022-09-16T09:03:48.646Z,17.68
2022-09-16T09:04:48.494Z,17.72
2022-09-16T09:05:48.487Z,17.72
2022-09-16T09:06:48.479Z,17.72
2022-09-16T09:07:48.477Z,17.74
2022-09-16T09:08:48.477Z,17.72
2022-09-16T09:09:48.456Z,17.77
2022-09-16T09:10:48.467Z,17.75
2022-09-16T09:11:48.448Z,17.74
2022-09-16T09:12:49.212Z,17.72
2022-09-16T09:13:48.434Z,17.71
2022-09-16T09:14:48.453Z,17.71
2022-09-16T09:15:48.562Z,17.74
2022-09-16T09:16:48.529Z,17.74
2022-09-16T09:17:48.729Z,17.72
2022-09-16T09:18:48.425Z,17.77
2022-09-16T09:19:48.411Z,17.78
2022-09-16T09:20:48.409Z,17.77
2022-09-16T09:21:48.395Z,17.75
2022-09-16T09:22:48.407Z,17.78
2022-09-16T09:23:48.380Z,17.77
2022-09-16T09:24:48.386Z,17.74
2022-09-16T09:25:48.380Z,17.81
2022-09-16T09:26:48.382Z,17.79
2022-09-16T09:27:48.360Z,17.78
2022-09-16T09:28:48.369Z,17.87
2022-09-16T09:29:48.368Z,17.79
2022-09-16T09:30:48.366Z,17.92
2022-09-16T09:31:48.527Z,17.86
2022-09-16T09:32:49.710Z,17.90
2022-09-16T09:33:48.380Z,17.90
2022-09-16T09:34:48.331Z,17.93
2022-09-16T09:35:48.335Z,17.89
2022-09-16T09:36:48.317Z,17.93
2022-09-16T09:37:48.314Z,17.92
2022-09-16T09:38:48.328Z,17.93
2022-09-16T09:39:48.370Z,17.90
2022-09-16T09:40:48.298Z,17.93
2022-09-16T09:41:48.292Z,17.97
2022-09-16T09:42:48.294Z,18.03
2022-09-16T09:43:48.284Z,17.93
2022-09-16T09:44:48.374Z,17.99
2022-09-16T09:45:48.373Z,17.90
2022-09-16T09:46:48.274Z,17.93
2022-09-16T09:47:48.403Z,17.99
2022-09-16T09:48:48.277Z,17.96
2022-09-16T09:49:48.254Z,17.95
2022-09-16T09:50:48.264Z,17.97
2022-09-16T09:51:48.267Z,17.97
2022-09-16T09:52:48.264Z,17.99
2022-09-16T09:53:48.244Z,17.99
2022-09-16T09:54:48.253Z,17.97
2022-09-16T09:55:48.234Z,17.97
2022-09-16T09:56:48.242Z,17.96
2022-09-16T09:57:48.219Z,17.99
2022-09-16T09:58:48.212Z,17.96
2022-09-16T09:59:48.209Z,18.00
2022-09-16T10:00:48.262Z,17.99
2022-09-16T10:01:48.235Z,17.95
2022-09-16T10:02:50.035Z,17.95
2022-09-16T10:03:48.322Z,17.97
2022-09-16T10:04:48.200Z,17.96
2022-09-16T10:05:48.183Z,17.93
2022-09-16T10:06:48.197Z,17.95
2022-09-16T10:07:48.181Z,18.02
2022-09-16T10:08:48.176Z,17.99
2022-09-16T10:09:48.186Z,18.00
2022-09-16T10:10:48.167Z,17.97
2022-09-16T10:11:48.156Z,17.89
2022-09-16T10:12:48.147Z,18.03
2022-09-16T10:13:48.168Z,17.99
2022-09-16T10:14:48.149Z,18.00
2022-09-16T10:15:51.962Z,17.96
2022-09-16T10:16:48.210Z,17.97
2022-09-16T10:17:48.129Z,18.02
2022-09-16T10:18:48.147Z,17.92
2022-09-16T10:19:48.269Z,18.00
2022-09-16T10:20:48.117Z,17.92
2022-09-16T10:21:48.128Z,17.97
2022-09-16T10:22:48.105Z,18.00
2022-09-16T10:23:48.184Z,18.03
2022-09-16T10:24:48.086Z,17.93
2022-09-16T10:25:48.084Z,17.97
2022-09-16T10:26:48.084Z,17.97
2022-09-16T10:27:48.078Z,17.95
2022-09-16T10:28:48.075Z,17.96
2022-09-16T10:29:48.074Z,18.07
2022-09-16T10:30:48.061Z,18.07
2022-09-16T10:31:48.133Z,18.03
2022-09-16T10:32:48.057Z,18.07
2022-09-16T10:33:48.101Z,18.10
2022-09-16T10:34:48.047Z,17.99
2022-09-16T10:35:48.180Z,18.05
2022-09-16T10:36:48.032Z,18.02
2022-09-16T10:37:48.025Z,17.99
2022-09-16T10:38:48.023Z,18.08
2022-09-16T10:39:48.081Z,17.99
2022-09-16T10:40:48.011Z,17.99
2022-09-16T10:41:48.016Z,18.10
2022-09-16T10:42:48.051Z,18.15
2022-09-16T10:43:48.004Z,18.14
2022-09-16T10:44:48.011Z,18.17
2022-09-16T10:45:48.065Z,18.15
2022-09-16T10:46:47.990Z,18.05
2022-09-16T10:47:47.994Z,18.20
2022-09-16T10:48:47.974Z,18.17
2022-09-16T10:49:47.981Z,18.11
2022-09-16T10:50:47.968Z,18.18
2022-09-16T10:51:48.113Z,18.20
2022-09-16T10:52:47.967Z,18.10
2022-09-16T10:53:48.209Z,18.15
2022-09-16T10:54:47.962Z,18.15
2022-09-16T10:55:47.946Z,18.08
2022-09-16T10:56:47.959Z,18.18
2022-09-16T10:57:47.942Z,18.07
2022-09-16T10:58:47.937Z,18.25
2022-09-16T10:59:47.923Z,18.25
2022-09-16T11:00:47.937Z,18.21
2022-09-16T11:01:48.829Z,18.17
2022-09-16T11:02:47.921Z,18.11
2022-09-16T11:03:48.002Z,18.11
2022-09-16T11:04:47.915Z,18.08
2022-09-16T11:05:47.899Z,18.18
2022-09-16T11:06:47.903Z,18.21
2022-09-16T11:07:48.031Z,18.17
2022-09-16T11:08:47.889Z,18.21
2022-09-16T11:09:47.881Z,18.20
2022-09-16T11:10:47.877Z,18.18
2022-09-16T11:11:47.864Z,18.20
2022-09-16T11:12:47.873Z,18.18
2022-09-16T11:13:47.920Z,18.14
2022-09-16T11:14:47.859Z,18.23
2022-09-16T11:15:47.869Z,18.18
2022-09-16T11:16:47.870Z,18.20
2022-09-16T11:17:47.846Z,18.18
2022-09-16T11:18:50.835Z,18.21
2022-09-16T11:19:47.828Z,18.17
2022-09-16T11:20:47.828Z,18.18
2022-09-16T11:21:47.829Z,18.18
2022-09-16T11:22:47.833Z,18.14
2022-09-16T11:23:48.019Z,18.17
2022-09-16T11:24:47.820Z,18.18
2022-09-16T11:25:47.816Z,18.14
2022-09-16T11:26:47.813Z,18.15
2022-09-16T11:27:47.801Z,18.12
2022-09-16T11:28:47.878Z,18.11
2022-09-16T11:29:47.790Z,18.17
2022-09-16T11:30:47.797Z,18.20
2022-09-16T11:31:47.826Z,18.21
2022-09-16T11:32:47.909Z,18.11
2022-09-16T11:33:47.833Z,18.08
2022-09-16T11:34:47.763Z,18.10
2022-09-16T11:35:47.762Z,18.20
2022-09-16T11:36:47.752Z,18.11
2022-09-16T11:37:47.755Z,18.10
2022-09-16T11:38:47.752Z,18.11
2022-09-16T11:39:47.922Z,18.20
2022-09-16T11:40:47.738Z,18.18
2022-09-16T11:41:47.730Z,18.15
2022-09-16T11:42:47.732Z,18.17
2022-09-16T11:43:47.730Z,18.17
2022-09-16T11:44:47.734Z,18.23
2022-09-16T11:45:47.711Z,18.25
2022-09-16T11:46:47.780Z,18.21
2022-09-16T11:47:47.706Z,18.35
2022-09-16T11:48:47.817Z,18.33
2022-09-16T11:49:47.699Z,18.33
2022-09-16T11:50:47.692Z,18.26
2022-09-16T11:51:47.692Z,18.26
2022-09-16T11:52:48.003Z,18.26
2022-09-16T11:53:47.688Z,18.29
2022-09-16T11:54:47.666Z,18.27
2022-09-16T11:55:47.836Z,18.29
2022-09-16T11:56:47.672Z,18.21
2022-09-16T11:57:47.668Z,18.39
2022-09-16T11:58:47.750Z,18.35
2022-09-16T11:59:47.659Z,18.32
2022-09-16T12:00:47.651Z,18.32
2022-09-16T12:01:47.708Z,18.39
2022-09-16T12:02:47.689Z,18.36
2022-09-16T12:03:47.775Z,18.33
2022-09-16T12:04:47.634Z,18.41
2022-09-16T12:05:47.639Z,18.30
2022-09-16T12:06:47.613Z,18.35
2022-09-16T12:07:47.616Z,18.35
2022-09-16T12:08:47.660Z,18.42
2022-09-16T12:09:47.608Z,18.33
2022-09-16T12:10:47.605Z,18.37
2022-09-16T12:11:47.730Z,18.36
2022-09-16T12:12:47.594Z,18.37
2022-09-16T12:13:47.596Z,18.35
2022-09-16T12:14:47.582Z,18.39
2022-09-16T12:15:47.571Z,18.32
2022-09-16T12:16:47.585Z,18.32
2022-09-16T12:17:47.573Z,18.33
2022-09-16T12:18:47.702Z,18.35
2022-09-16T12:19:47.567Z,18.33
2022-09-16T12:20:47.555Z,18.36
2022-09-16T12:21:47.545Z,18.33
2022-09-16T12:22:47.550Z,18.33
2022-09-16T12:23:47.552Z,18.33
2022-09-16T12:24:47.527Z,18.33
2022-09-16T12:25:47.535Z,18.33
2022-09-16T12:26:47.537Z,18.25
2022-09-16T12:27:47.657Z,18.32
2022-09-16T12:28:47.514Z,18.36
2022-09-16T12:29:47.515Z,18.33
2022-09-16T12:30:47.556Z,18.37
2022-09-16T12:31:47.503Z,18.37
2022-09-16T12:32:47.522Z,18.36
2022-09-16T12:33:47.600Z,18.36
2022-09-16T12:34:47.485Z,18.37
2022-09-16T12:35:47.489Z,18.32
2022-09-16T12:36:47.477Z,18.32
2022-09-16T12:37:47.488Z,18.25
2022-09-16T12:38:47.547Z,18.20
2022-09-16T12:39:47.536Z,18.21
2022-09-16T12:40:47.476Z,18.11
2022-09-16T12:41:47.461Z,18.21
2022-09-16T12:42:47.451Z,18.07
2022-09-16T12:43:47.574Z,18.08
2022-09-16T12:44:47.438Z,18.00
2022-09-16T12:45:47.441Z,17.89
2022-09-16T12:46:47.518Z,17.90
2022-09-16T12:47:47.426Z,17.81
2022-09-16T12:48:47.436Z,17.72
2022-09-16T12:49:47.433Z,17.71
2022-09-16T12:50:47.416Z,17.59
2022-09-16T12:51:50.399Z,17.51
2022-09-16T12:52:47.402Z,17.48
2022-09-16T12:53:47.404Z,17.41